Time;durP1;ratioP1;P1;durP2;ratioP2;P2;SDS_P1;SDS_P2;PMS_P1;PMS_P2;Temp;Humidity;BMP_temperature;BMP_pressure;BME280_temperature;BME280_humidity;BME280_pressure;Samples;Min_cycle;Max_cycle;Signal;HPM_P1;HPM_P2
2023/08/24 00:00:47;;;;;;;2.22;1.23;;;;;;;;;;5097369;28;20030;-20
2023/08/24 00:03:14;;;;;;;2.47;1.65;;;;;;;;;;5097256;28;20024;-21
2023/08/24 00:05:42;;;;;;;2.47;1.50;;;;;;;;;;5097875;28;20343;-19
2023/08/24 00:08:08;;;;;;;2.00;1.52;;;;;;;;;;5096980;28;20116;-19
2023/08/24 00:10:35;;;;;;;2.85;1.42;;;;;;;;;;5097162;28;20024;-18
2023/08/24 00:13:01;;;;;;;4.40;1.30;;;;;;;;;;5097055;28;20020;-20
2023/08/24 00:15:28;;;;;;;2.13;1.40;;;;;;;;;;5097350;28;20020;-19
2023/08/24 00:17:54;;;;;;;1.48;1.38;;;;;;;;;;5097268;28;20349;-19
2023/08/24 00:20:20;;;;;;;1.65;1.55;;;;;;;;;;5096987;28;20124;-21
2023/08/24 00:22:47;;;;;;;1.98;1.38;;;;;;;;;;5096892;28;20358;-18
2023/08/24 00:25:13;;;;;;;2.38;1.65;;;;;;;;;;5097434;28;20032;-19
2023/08/24 00:27:40;;;;;;;1.65;1.38;;;;;;;;;;5097640;28;20024;-20
2023/08/24 00:30:07;;;;;;;2.85;1.23;;;;;;;;;;5097065;28;20024;-21
2023/08/24 00:32:34;;;;;;;1.20;1.15;;;;;;;;;;5096681;28;20040;-21
2023/08/24 00:35:01;;;;;;;2.20;1.70;;;;;;;;;;5096669;28;20063;-17
2023/08/24 00:37:28;;;;;;;2.63;1.55;;;;;;;;;;5096599;28;20024;-19
2023/08/24 00:39:57;;;;;;;2.15;1.55;;;;;;;;;;5096608;28;20066;-20
2023/08/24 00:42:24;;;;;;;1.80;1.55;;;;;;;;;;5096745;28;20039;-22
2023/08/24 00:44:50;;;;;;;1.65;1.40;;;;;;;;;;5095846;28;20085;-20
2023/08/24 00:47:17;;;;;;;2.00;1.83;;;;;;;;;;5096356;28;20436;-18
2023/08/24 00:49:43;;;;;;;1.92;1.40;;;;;;;;;;5096644;28;20435;-23
2023/08/24 00:52:10;;;;;;;3.30;1.33;;;;;;;;;;5095314;28;20039;-19
2023/08/24 00:54:37;;;;;;;2.38;1.60;;;;;;;;;;5096559;28;20506;-20
2023/08/24 00:57:04;;;;;;;1.83;1.38;;;;;;;;;;5096282;28;20067;-21
2023/08/24 00:59:30;;;;;;;2.40;1.63;;;;;;;;;;5096156;28;20466;-21
2023/08/24 01:01:56;;;;;;;1.77;1.20;;;;;;;;;;5096044;28;20036;-19
2023/08/24 01:04:23;;;;;;;1.77;1.63;;;;;;;;;;5096676;28;20065;-20
2023/08/24 01:06:49;;;;;;;1.52;1.42;;;;;;;;;;5095917;28;20044;-20
2023/08/24 01:09:16;;;;;;;2.63;1.52;;;;;;;;;;5096093;28;20107;-22
2023/08/24 01:11:54;;;;;;;2.00;1.90;;;;;;;;;;5096318;28;20428;-21
2023/08/24 01:14:34;;;;;;;1.90;1.27;;;;;;;;;;5096532;28;20107;-20
2023/08/24 01:17:02;;;;;;;3.53;1.75;;;;;;;;;;5096494;28;20030;-17
2023/08/24 01:19:39;;;;;;;1.52;1.27;;;;;;;;;;5095740;28;20043;-19
2023/08/24 01:22:16;;;;;;;1.83;1.30;;;;;;;;;;5096005;28;20034;-19
2023/08/24 01:24:48;;;;;;;2.33;1.70;;;;;;;;;;5096075;28;20059;-20
2023/08/24 01:27:15;;;;;;;1.88;1.35;;;;;;;;;;5096064;28;20024;-18
2023/08/24 01:29:42;;;;;;;1.48;1.33;;;;;;;;;;5095613;28;20051;-22
2023/08/24 01:32:14;;;;;;;3.15;1.67;;;;;;;;;;5095482;28;20032;-20
2023/08/24 01:34:40;;;;;;;1.58;1.30;;;;;;;;;;5096095;28;20024;-20
2023/08/24 01:37:07;;;;;;;1.92;1.75;;;;;;;;;;5095468;28;20027;-19
2023/08/24 01:39:44;;;;;;;5.15;2.22;;;;;;;;;;5095658;28;20024;-20
2023/08/24 01:42:11;;;;;;;3.60;1.33;;;;;;;;;;5095438;28;20073;-19
2023/08/24 01:44:40;;;;;;;2.13;1.83;;;;;;;;;;5095357;28;20077;-24
2023/08/24 01:47:09;;;;;;;3.25;1.45;;;;;;;;;;5095317;28;20023;-17
2023/08/24 01:49:35;;;;;;;2.35;1.17;;;;;;;;;;5095566;28;20099;-23
2023/08/24 01:52:02;;;;;;;1.58;1.35;;;;;;;;;;5095166;28;20098;-19
2023/08/24 01:54:28;;;;;;;1.65;1.55;;;;;;;;;;5095243;28;20024;-19
2023/08/24 01:56:55;;;;;;;1.70;1.55;;;;;;;;;;5095691;28;20035;-19
2023/08/24 01:59:21;;;;;;;1.90;1.20;;;;;;;;;;5095368;28;20088;-18
2023/08/24 02:01:47;;;;;;;1.52;1.40;;;;;;;;;;5095385;28;20016;-17
2023/08/24 02:04:13;;;;;;;2.20;1.55;;;;;;;;;;5095025;28;20375;-20
2023/08/24 02:06:39;;;;;;;2.08;1.40;;;;;;;;;;5095064;28;20056;-17
2023/08/24 02:09:06;;;;;;;1.63;1.35;;;;;;;;;;5095014;28;20085;-20
2023/08/24 02:11:32;;;;;;;1.80;1.33;;;;;;;;;;5094974;28;20455;-28
2023/08/24 02:13:58;;;;;;;6.18;1.63;;;;;;;;;;5093900;28;20032;-21
2023/08/24 02:16:24;;;;;;;1.45;1.35;;;;;;;;;;5094833;28;20030;-20
2023/08/24 02:18:50;;;;;;;3.28;1.48;;;;;;;;;;5094814;28;20032;-20
2023/08/24 02:21:17;;;;;;;1.73;1.55;;;;;;;;;;5095098;28;20039;-18
2023/08/24 02:23:43;;;;;;;2.08;1.67;;;;;;;;;;5095246;28;20331;-19
2023/08/24 02:26:09;;;;;;;2.05;1.33;;;;;;;;;;5095061;28;20027;-20
2023/08/24 02:28:37;;;;;;;2.35;1.10;;;;;;;;;;5095092;28;20093;-25
2023/08/24 02:31:03;;;;;;;2.80;1.30;;;;;;;;;;5094765;28;20024;-18
2023/08/24 02:33:30;;;;;;;1.58;1.25;;;;;;;;;;5094678;28;20362;-20
2023/08/24 02:35:56;;;;;;;1.50;1.40;;;;;;;;;;5094684;28;20024;-17
2023/08/24 02:38:22;;;;;;;1.58;1.10;;;;;;;;;;5094837;28;20035;-18
2023/08/24 02:40:48;;;;;;;1.52;1.27;;;;;;;;;;5094591;28;20050;-19
2023/08/24 02:43:14;;;;;;;2.83;2.45;;;;;;;;;;5094534;28;20448;-19
2023/08/24 02:45:40;;;;;;;2.08;1.27;;;;;;;;;;5094601;28;20020;-21
2023/08/24 02:48:06;;;;;;;1.25;1.23;;;;;;;;;;5094783;28;20354;-17
2023/08/24 02:50:33;;;;;;;6.05;1.40;;;;;;;;;;5094575;28;20024;-19
2023/08/24 02:53:01;;;;;;;1.85;1.70;;;;;;;;;;5094606;28;20516;-19
2023/08/24 02:55:27;;;;;;;1.35;1.27;;;;;;;;;;5094816;28;20098;-20
2023/08/24 02:57:53;;;;;;;1.70;1.60;;;;;;;;;;5094945;28;20042;-20
2023/08/24 03:00:19;;;;;;;2.47;1.45;;;;;;;;;;5094753;28;20402;-19
2023/08/24 03:02:45;;;;;;;1.65;1.55;;;;;;;;;;5094417;28;20032;-18
2023/08/24 03:05:12;;;;;;;1.27;1.17;;;;;;;;;;5095032;28;20024;-20
2023/08/24 03:07:38;;;;;;;1.60;1.25;;;;;;;;;;5094318;28;20048;-19
2023/08/24 03:10:04;;;;;;;5.20;2.15;;;;;;;;;;5098202;28;20020;-20
2023/08/24 03:12:30;;;;;;;3.03;1.65;;;;;;;;;;5097392;28;20043;-20
2023/08/24 03:14:56;;;;;;;1.30;1.20;;;;;;;;;;5098497;28;20090;-20
2023/08/24 03:17:23;;;;;;;2.17;1.33;;;;;;;;;;5098214;28;20157;-19
2023/08/24 03:19:49;;;;;;;1.35;1.17;;;;;;;;;;5098373;28;20031;-18
2023/08/24 03:22:15;;;;;;;1.50;1.40;;;;;;;;;;5097115;28;20030;-20
2023/08/24 03:24:41;;;;;;;1.20;1.10;;;;;;;;;;5098346;28;20346;-18
2023/08/24 03:27:07;;;;;;;1.20;1.00;;;;;;;;;;5098267;28;20099;-20
2023/08/24 03:29:33;;;;;;;2.00;1.30;;;;;;;;;;5097990;28;20107;-21
2023/08/24 03:31:59;;;;;;;1.40;1.23;;;;;;;;;;5096866;28;20031;-20
2023/08/24 03:34:27;;;;;;;1.20;1.10;;;;;;;;;;5097894;28;20028;-19
2023/08/24 03:36:53;;;;;;;1.50;1.40;;;;;;;;;;5098426;28;20030;-20
2023/08/24 03:39:19;;;;;;;1.33;1.08;;;;;;;;;;5097732;28;20413;-20
2023/08/24 03:41:45;;;;;;;2.38;1.20;;;;;;;;;;5096734;28;20024;-19
2023/08/24 03:44:11;;;;;;;1.25;1.10;;;;;;;;;;5097620;28;20020;-18
2023/08/24 03:46:37;;;;;;;1.55;1.35;;;;;;;;;;5096658;28;20058;-23
2023/08/24 03:49:03;;;;;;;1.73;1.35;;;;;;;;;;5097558;28;20043;-20
2023/08/24 03:51:30;;;;;;;1.85;1.30;;;;;;;;;;5098046;28;20451;-20
2023/08/24 03:53:56;;;;;;;1.45;1.20;;;;;;;;;;5097374;28;20027;-20
2023/08/24 03:56:22;;;;;;;1.17;1.08;;;;;;;;;;5096466;28;20522;-18
2023/08/24 03:58:49;;;;;;;1.98;1.20;;;;;;;;;;5097209;28;20032;-21
2023/08/24 04:01:15;;;;;;;1.25;1.15;;;;;;;;;;5097594;28;20020;-20
2023/08/24 04:03:41;;;;;;;2.35;1.20;;;;;;;;;;5097493;28;20109;-20
2023/08/24 04:06:07;;;;;;;1.42;1.33;;;;;;;;;;5097001;28;20090;-22
2023/08/24 04:08:34;;;;;;;1.13;1.13;;;;;;;;;;5097199;28;20507;-22
2023/08/24 04:11:01;;;;;;;1.20;1.10;;;;;;;;;;5097372;28;20080;-21
2023/08/24 04:13:27;;;;;;;1.80;1.52;;;;;;;;;;5096890;28;20447;-20
2023/08/24 04:15:53;;;;;;;1.08;1.08;;;;;;;;;;5096914;28;20024;-17
2023/08/24 04:18:20;;;;;;;1.55;1.33;;;;;;;;;;5097087;28;20103;-18
2023/08/24 04:20:46;;;;;;;1.73;1.50;;;;;;;;;;5095924;28;20051;-22
2023/08/24 04:23:14;;;;;;;1.83;1.48;;;;;;;;;;5097289;28;20055;-18
2023/08/24 04:25:40;;;;;;;1.58;1.33;;;;;;;;;;5096714;28;20081;-19
2023/08/24 04:28:06;;;;;;;1.20;1.10;;;;;;;;;;5096657;28;20061;-20
2023/08/24 04:30:33;;;;;;;1.13;1.10;;;;;;;;;;5096746;28;20360;-22
2023/08/24 04:32:59;;;;;;;1.77;1.52;;;;;;;;;;5097049;28;20085;-19
2023/08/24 04:35:26;;;;;;;4.28;1.48;;;;;;;;;;5096871;28;20024;-20
2023/08/24 04:37:52;;;;;;;10.63;1.42;;;;;;;;;;5095527;28;20020;-21
2023/08/24 04:40:19;;;;;;;2.30;1.38;;;;;;;;;;5096487;28;20039;-18
2023/08/24 04:42:45;;;;;;;1.88;1.75;;;;;;;;;;5096630;28;20027;-21
2023/08/24 04:45:11;;;;;;;2.15;1.45;;;;;;;;;;5096382;28;20031;-23
2023/08/24 04:47:37;;;;;;;2.30;1.30;;;;;;;;;;5095436;28;20464;-19
2023/08/24 04:50:03;;;;;;;4.72;1.45;;;;;;;;;;5096173;28;20162;-20
2023/08/24 04:52:29;;;;;;;3.83;2.13;;;;;;;;;;5096177;28;20032;-19
2023/08/24 04:54:56;;;;;;;1.88;1.00;;;;;;;;;;5096650;28;20024;-20
2023/08/24 04:57:22;;;;;;;1.38;1.30;;;;;;;;;;5096008;28;20034;-20
2023/08/24 04:59:48;;;;;;;2.78;1.45;;;;;;;;;;5095850;28;20020;-19
2023/08/24 05:02:14;;;;;;;2.78;1.10;;;;;;;;;;5095826;28;20107;-18
2023/08/24 05:04:40;;;;;;;1.52;1.42;;;;;;;;;;5096176;28;20039;-17
2023/08/24 05:07:06;;;;;;;1.30;1.20;;;;;;;;;;5095658;28;20052;-18
2023/08/24 05:09:32;;;;;;;1.23;1.13;;;;;;;;;;5095782;28;20020;-20
2023/08/24 05:11:59;;;;;;;3.28;1.17;;;;;;;;;;5095576;28;20328;-21
2023/08/24 05:14:25;;;;;;;1.27;1.17;;;;;;;;;;5095738;28;20099;-23
2023/08/24 05:16:51;;;;;;;1.63;1.00;;;;;;;;;;5095630;28;20063;-20
2023/08/24 05:19:17;;;;;;;1.55;1.13;;;;;;;;;;5095595;28;20046;-18
2023/08/24 05:21:43;;;;;;;1.95;1.80;;;;;;;;;;5095931;28;20084;-16
2023/08/24 05:24:09;;;;;;;5.25;1.55;;;;;;;;;;5095489;28;20046;-18
2023/08/24 05:26:35;;;;;;;2.47;1.95;;;;;;;;;;5095652;28;20031;-20
2023/08/24 05:29:01;;;;;;;4.65;1.30;;;;;;;;;;5095790;28;20046;-19
2023/08/24 05:31:27;;;;;;;1.98;1.38;;;;;;;;;;5095074;28;20028;-20
2023/08/24 05:33:53;;;;;;;1.42;1.15;;;;;;;;;;5095189;28;20111;-21
2023/08/24 05:36:20;;;;;;;5.18;1.20;;;;;;;;;;5095262;28;20064;-20
2023/08/24 05:38:46;;;;;;;1.20;1.10;;;;;;;;;;5095265;28;20081;-19
2023/08/24 05:41:13;;;;;;;1.67;1.23;;;;;;;;;;5095811;28;20066;-23
2023/08/24 05:43:39;;;;;;;2.88;1.42;;;;;;;;;;5094118;28;20515;-19
2023/08/24 05:46:06;;;;;;;1.90;1.45;;;;;;;;;;5095116;28;20052;-18
2023/08/24 05:48:32;;;;;;;1.88;1.27;;;;;;;;;;5095282;28;20023;-20
2023/08/24 05:50:58;;;;;;;2.72;1.83;;;;;;;;;;5095862;28;20443;-18
2023/08/24 05:53:24;;;;;;;1.40;1.20;;;;;;;;;;5094879;28;20035;-21
2023/08/24 05:55:50;;;;;;;3.85;1.80;;;;;;;;;;5095372;28;20059;-21
2023/08/24 05:58:16;;;;;;;1.30;1.20;;;;;;;;;;5095014;28;20035;-18
2023/08/24 06:03:18;;;;;;;3.35;1.45;;;;;;;;;;5437755;22;20390;-28
2023/08/24 06:05:44;;;;;;;4.53;1.10;;;;;;;;;;5074892;28;20027;-25
2023/08/24 06:08:10;;;;;;;1.20;1.10;;;;;;;;;;5074779;28;20028;-27
2023/08/24 06:10:36;;;;;;;7.43;1.33;;;;;;;;;;5056893;28;20021;-26
2023/08/24 06:13:02;;;;;;;4.70;1.27;;;;;;;;;;5074569;28;20020;-26
2023/08/24 06:15:29;;;;;;;3.03;1.33;;;;;;;;;;5074638;28;20021;-24
2023/08/24 06:17:55;;;;;;;4.03;1.17;;;;;;;;;;5074786;28;20024;-25
2023/08/24 06:20:21;;;;;;;5.75;1.17;;;;;;;;;;5074877;28;20012;-24
2023/08/24 06:22:47;;;;;;;3.05;1.45;;;;;;;;;;5074566;28;20044;-27
2023/08/24 06:25:14;;;;;;;8.23;1.65;;;;;;;;;;5074740;28;20025;-25
2023/08/24 06:27:40;;;;;;;6.85;1.60;;;;;;;;;;5074887;28;20142;-27
2023/08/24 06:30:07;;;;;;;1.40;1.30;;;;;;;;;;5056805;28;20340;-24
2023/08/24 06:32:33;;;;;;;6.68;1.40;;;;;;;;;;5074692;28;20089;-28
2023/08/24 06:35:00;;;;;;;3.83;1.23;;;;;;;;;;5074459;28;20024;-26
2023/08/24 06:37:26;;;;;;;3.78;1.30;;;;;;;;;;5074785;28;20328;-28
2023/08/24 06:39:52;;;;;;;2.05;1.48;;;;;;;;;;5074281;28;20136;-28
2023/08/24 06:42:18;;;;;;;4.35;1.50;;;;;;;;;;5074535;28;20024;-25
2023/08/24 06:44:45;;;;;;;2.95;1.42;;;;;;;;;;5077738;28;20064;-28
2023/08/24 06:47:11;;;;;;;1.55;1.17;;;;;;;;;;5078395;28;20040;-25
2023/08/24 06:49:37;;;;;;;10.25;3.67;;;;;;;;;;5078623;28;20103;-27
2023/08/24 06:52:03;;;;;;;3.55;1.58;;;;;;;;;;5078207;28;20107;-24
2023/08/24 06:54:29;;;;;;;29.88;1.65;;;;;;;;;;5078266;28;20024;-28
2023/08/24 06:56:55;;;;;;;2.35;1.30;;;;;;;;;;5078182;28;20020;-28
2023/08/24 06:59:21;;;;;;;3.30;1.38;;;;;;;;;;5078098;28;20025;-26
2023/08/24 07:01:47;;;;;;;3.60;1.50;;;;;;;;;;5077923;28;20107;-26
2023/08/24 07:04:14;;;;;;;7.53;1.25;;;;;;;;;;5077912;28;20430;-28
2023/08/24 07:06:40;;;;;;;2.08;1.48;;;;;;;;;;5078097;28;20031;-25
2023/08/24 07:09:07;;;;;;;2.20;1.58;;;;;;;;;;5079106;28;20331;-27
2023/08/24 07:11:33;;;;;;;1.38;1.27;;;;;;;;;;5077901;28;20036;-25
2023/08/24 07:13:59;;;;;;;4.30;1.40;;;;;;;;;;5077778;28;20028;-28
2023/08/24 07:16:25;;;;;;;1.13;1.02;;;;;;;;;;5077786;28;20073;-29
2023/08/24 07:18:51;;;;;;;2.60;1.33;;;;;;;;;;5077764;28;20028;-26
2023/08/24 07:21:18;;;;;;;1.25;1.15;;;;;;;;;;5077775;28;20020;-28
2023/08/24 07:23:44;;;;;;;3.28;1.40;;;;;;;;;;5077363;28;20036;-28
2023/08/24 07:26:10;;;;;;;1.70;1.15;;;;;;;;;;5077366;28;20056;-28
2023/08/24 07:28:37;;;;;;;2.08;1.50;;;;;;;;;;5077377;28;20068;-26
2023/08/24 07:31:12;;;;;;;1.58;1.30;;;;;;;;;;5077570;28;20028;-26
2023/08/24 07:33:39;;;;;;;2.25;1.38;;;;;;;;;;5077598;28;20082;-25
2023/08/24 07:36:05;;;;;;;1.88;1.42;;;;;;;;;;5077421;28;20028;-29
2023/08/24 07:38:31;;;;;;;2.97;1.50;;;;;;;;;;5077277;28;20025;-28
2023/08/24 07:40:58;;;;;;;1.30;1.20;;;;;;;;;;5077582;28;20086;-29
2023/08/24 07:43:24;;;;;;;1.80;1.35;;;;;;;;;;5077177;28;20021;-28
2023/08/24 07:45:52;;;;;;;2.40;1.08;;;;;;;;;;5077334;28;20024;-27
2023/08/24 07:48:18;;;;;;;2.47;0.93;;;;;;;;;;5077288;28;20059;-28
2023/08/24 07:50:44;;;;;;;4.70;1.20;;;;;;;;;;5077490;28;20035;-25
2023/08/24 07:53:10;;;;;;;2.30;1.20;;;;;;;;;;5077041;28;20032;-28
2023/08/24 07:55:36;;;;;;;3.08;1.60;;;;;;;;;;5077226;28;20178;-26
2023/08/24 07:58:03;;;;;;;3.40;1.52;;;;;;;;;;5077032;28;20169;-27
2023/08/24 08:00:30;;;;;;;2.90;1.23;;;;;;;;;;5077366;28;20447;-26
2023/08/24 08:02:56;;;;;;;1.30;1.20;;;;;;;;;;5076693;28;20528;-26
2023/08/24 08:05:22;;;;;;;2.53;1.10;;;;;;;;;;5077006;28;20356;-26
2023/08/24 08:07:49;;;;;;;2.85;1.42;;;;;;;;;;5076872;28;20032;-28
2023/08/24 08:10:20;;;;;;;4.32;1.30;;;;;;;;;;5059216;28;20039;-28
2023/08/24 08:12:46;;;;;;;;;;;;;;;;;;5077488;28;20021;-27
2023/08/24 08:15:12;;;;;;;1.65;1.40;;;;;;;;;;5077082;28;20261;-24
2023/08/24 08:17:38;;;;;;;1.45;1.30;;;;;;;;;;5076983;28;20036;-24
2023/08/24 08:20:04;;;;;;;1.67;1.52;;;;;;;;;;5076582;28;20028;-27
2023/08/24 08:22:35;;;;;;;1.40;1.30;;;;;;;;;;5076901;28;20025;-28
2023/08/24 08:25:01;;;;;;;1.85;1.25;;;;;;;;;;5076961;28;20016;-27
2023/08/24 08:27:27;;;;;;;2.10;1.70;;;;;;;;;;5058903;28;20332;-27
2023/08/24 08:29:54;;;;;;;2.05;1.67;;;;;;;;;;5076864;28;20062;-29
2023/08/24 08:32:20;;;;;;;2.05;1.50;;;;;;;;;;5076440;28;20110;-24
2023/08/24 08:34:46;;;;;;;1.15;1.05;;;;;;;;;;5076710;28;20046;-25
2023/08/24 08:37:12;;;;;;;5.05;1.20;;;;;;;;;;5076343;28;20543;-27
2023/08/24 08:39:38;;;;;;;3.42;1.65;;;;;;;;;;5076491;28;20116;-26
2023/08/24 08:42:04;;;;;;;2.40;1.65;;;;;;;;;;5076283;28;20021;-29
2023/08/24 08:44:31;;;;;;;3.53;1.70;;;;;;;;;;5058678;28;20028;-28
2023/08/24 08:46:58;;;;;;;7.60;1.83;;;;;;;;;;5076102;28;20103;-27
2023/08/24 08:49:24;;;;;;;2.58;0.90;;;;;;;;;;5075979;28;20032;-25
2023/08/24 08:51:51;;;;;;;3.13;1.20;;;;;;;;;;5075929;28;20047;-26
2023/08/24 08:54:17;;;;;;;5.70;1.60;;;;;;;;;;5075920;28;20025;-26
2023/08/24 08:56:43;;;;;;;2.47;2.20;;;;;;;;;;5076396;28;20111;-25
2023/08/24 08:59:12;;;;;;;2.13;1.10;;;;;;;;;;5058579;28;20021;-27
2023/08/24 09:01:39;;;;;;;5.20;1.35;;;;;;;;;;5075790;28;20028;-26
2023/08/24 09:04:07;;;;;;;2.15;1.40;;;;;;;;;;5075438;28;20059;-29
2023/08/24 09:06:34;;;;;;;1.98;1.30;;;;;;;;;;5075329;28;20047;-28
2023/08/24 09:09:01;;;;;;;2.67;1.67;;;;;;;;;;5075631;28;20017;-29
2023/08/24 09:11:27;;;;;;;5.13;1.55;;;;;;;;;;5075596;28;20379;-27
2023/08/24 09:13:53;;;;;;;3.47;1.92;;;;;;;;;;5075403;28;20032;-27
2023/08/24 09:16:20;;;;;;;3.90;1.50;;;;;;;;;;5075752;28;20028;-26
2023/08/24 09:18:47;;;;;;;4.80;1.52;;;;;;;;;;5057695;28;20157;-27
2023/08/24 09:21:14;;;;;;;3.13;1.23;;;;;;;;;;5075328;28;20028;-27
2023/08/24 09:23:52;;;;;;;3.95;1.70;;;;;;;;;;5075383;28;20088;-27
2023/08/24 09:26:28;;;;;;;2.67;1.40;;;;;;;;;;5075445;28;20021;-25
2023/08/24 09:28:54;;;;;;;2.60;1.70;;;;;;;;;;5057732;28;20336;-28
2023/08/24 09:31:20;;;;;;;2.88;1.42;;;;;;;;;;5075599;28;20099;-26
2023/08/24 09:33:48;;;;;;;1.30;1.20;;;;;;;;;;5075202;28;20435;-28
2023/08/24 09:36:14;;;;;;;1.83;1.30;;;;;;;;;;5075179;28;20047;-26
2023/08/24 09:38:47;;;;;;;4.35;1.40;;;;;;;;;;5075058;28;20099;-28
2023/08/24 09:41:13;;;;;;;4.50;1.80;;;;;;;;;;5057531;28;20028;-26
2023/08/24 09:43:40;;;;;;;4.20;1.67;;;;;;;;;;5074983;28;20074;-27
2023/08/24 09:46:07;;;;;;;2.25;1.42;;;;;;;;;;5074994;28;20021;-27
2023/08/24 09:48:34;;;;;;;2.70;1.58;;;;;;;;;;5075234;28;20056;-27
2023/08/24 09:51:04;;;;;;;4.47;1.38;;;;;;;;;;5075171;28;20048;-27
2023/08/24 09:53:33;;;;;;;9.32;2.08;;;;;;;;;;5075200;28;20035;-29
2023/08/24 09:56:03;;;;;;;1.48;1.38;;;;;;;;;;5074893;28;20024;-28
2023/08/24 09:58:30;;;;;;;2.13;1.63;;;;;;;;;;5074744;28;20017;-25
2023/08/24 10:00:56;;;;;;;4.05;1.60;;;;;;;;;;5057088;28;20442;-27
2023/08/24 10:03:26;;;;;;;2.13;1.85;;;;;;;;;;5074589;28;20048;-28
2023/08/24 10:06:00;;;;;;;1.98;1.27;;;;;;;;;;5075053;28;20177;-28
2023/08/24 10:08:35;;;;;;;3.60;1.27;;;;;;;;;;5075007;28;20028;-25
2023/08/24 10:11:01;;;;;;;5.10;1.67;;;;;;;;;;5074750;28;20397;-27
2023/08/24 10:13:41;;;;;;;2.60;1.25;;;;;;;;;;5074806;28;20025;-27
2023/08/24 10:16:09;;;;;;;1.95;1.80;;;;;;;;;;5074857;28;20032;-25
2023/08/24 10:18:37;;;;;;;1.60;1.50;;;;;;;;;;5073824;28;20036;-25
2023/08/24 10:21:03;;;;;;;3.22;1.42;;;;;;;;;;5074509;28;20455;-28
2023/08/24 10:23:30;;;;;;;4.07;1.75;;;;;;;;;;5074498;28;20333;-24
2023/08/24 10:25:56;;;;;;;3.63;2.03;;;;;;;;;;5056848;28;20016;-26
2023/08/24 10:28:25;;;;;;;2.25;1.45;;;;;;;;;;5074538;28;20025;-26
2023/08/24 10:30:52;;;;;;;2.63;1.70;;;;;;;;;;5074497;28;20359;-27
2023/08/24 10:33:19;;;;;;;2.00;1.70;;;;;;;;;;5074373;28;20033;-27
2023/08/24 10:35:46;;;;;;;3.75;2.42;;;;;;;;;;5074655;28;20107;-27
2023/08/24 10:38:26;;;;;;;1.52;1.42;;;;;;;;;;5074708;28;20051;-27
2023/08/24 10:40:52;;;;;;;1.65;1.48;;;;;;;;;;5074839;28;20021;-27
2023/08/24 10:43:19;;;;;;;3.85;2.03;;;;;;;;;;5056598;28;20121;-25
2023/08/24 10:45:57;;;;;;;4.20;1.90;;;;;;;;;;5074386;28;20124;-24
2023/08/24 10:48:28;;;;;;;4.25;1.80;;;;;;;;;;5074584;28;20028;-29
2023/08/24 10:51:16;;;;;;;2.25;1.63;;;;;;;;;;5074346;28;20029;-23
2023/08/24 10:53:44;;;;;;;2.92;2.00;;;;;;;;;;5061424;28;20111;-25
2023/08/24 10:56:11;;;;;;;5.30;1.63;;;;;;;;;;5074236;28;20050;-28
2023/08/24 10:58:38;;;;;;;2.70;1.90;;;;;;;;;;5074101;28;20104;-29
2023/08/24 11:01:04;;;;;;;2.92;2.03;;;;;;;;;;5074361;28;20401;-26
2023/08/24 11:03:33;;;;;;;2.38;1.65;;;;;;;;;;5073854;28;20127;-30
2023/08/24 11:05:59;;;;;;;3.58;1.98;;;;;;;;;;5074165;28;20033;-23
2023/08/24 11:08:44;;;;;;;1.70;1.60;;;;;;;;;;5074156;28;20028;-24
2023/08/24 11:11:22;;;;;;;3.03;1.45;;;;;;;;;;5074109;28;20024;-27
2023/08/24 11:14:07;;;;;;;2.20;2.00;;;;;;;;;;5073978;28;20056;-28
2023/08/24 11:16:40;;;;;;;2.05;1.70;;;;;;;;;;5056412;28;20025;-27
2023/08/24 11:19:07;;;;;;;5.97;2.03;;;;;;;;;;5074701;28;20111;-26
2023/08/24 11:21:34;;;;;;;1.83;1.73;;;;;;;;;;5074291;28;20099;-27
2023/08/24 11:24:01;;;;;;;6.80;1.83;;;;;;;;;;5073938;28;20090;-27
2023/08/24 11:26:27;;;;;;;6.40;1.67;;;;;;;;;;5074199;28;20055;-26
2023/08/24 11:28:54;;;;;;;3.80;1.80;;;;;;;;;;5073767;28;20047;-27
2023/08/24 11:31:21;;;;;;;2.17;2.03;;;;;;;;;;5060030;28;20020;-28
2023/08/24 11:33:47;;;;;;;6.55;2.17;;;;;;;;;;5077543;28;20037;-25
2023/08/24 11:36:13;;;;;;;2.75;1.77;;;;;;;;;;5077593;28;20052;-26
2023/08/24 11:38:41;;;;;;;7.00;2.20;;;;;;;;;;5077374;28;20035;-24
2023/08/24 11:41:13;;;;;;;2.67;1.73;;;;;;;;;;5077481;28;20351;-24
2023/08/24 11:43:39;;;;;;;2.40;1.55;;;;;;;;;;5077343;28;20036;-27
2023/08/24 11:46:05;;;;;;;1.98;1.60;;;;;;;;;;5077683;28;20350;-25
2023/08/24 11:48:31;;;;;;;2.08;1.65;;;;;;;;;;5059680;28;20029;-26
2023/08/24 11:50:58;;;;;;;6.40;2.15;;;;;;;;;;5077181;28;20028;-24
2023/08/24 11:53:24;;;;;;;3.15;1.88;;;;;;;;;;5077371;28;20414;-28
2023/08/24 11:55:54;;;;;;;2.72;2.53;;;;;;;;;;5077170;28;20055;-27
2023/08/24 11:58:20;;;;;;;2.72;2.53;;;;;;;;;;5077064;28;20035;-27
2023/08/24 12:00:47;;;;;;;3.58;2.20;;;;;;;;;;5077082;28;20104;-24
2023/08/24 12:03:13;;;;;;;2.40;1.80;;;;;;;;;;5059259;28;20123;-25
2023/08/24 12:05:39;;;;;;;3.78;1.80;;;;;;;;;;5077344;28;20478;-25
2023/08/24 12:08:06;;;;;;;2.10;1.90;;;;;;;;;;5076899;28;20020;-26
2023/08/24 12:10:32;;;;;;;4.72;1.50;;;;;;;;;;5059580;28;20051;-27
2023/08/24 12:13:04;;;;;;;2.58;2.00;;;;;;;;;;5076974;28;20098;-27
2023/08/24 12:15:30;;;;;;;4.78;1.85;;;;;;;;;;5076835;28;20025;-28
2023/08/24 12:17:56;;;;;;;2.00;1.52;;;;;;;;;;5076673;28;20017;-27
2023/08/24 12:20:23;;;;;;;6.10;2.05;;;;;;;;;;5059024;28;20032;-25
2023/08/24 12:22:56;;;;;;;6.72;3.25;;;;;;;;;;5076748;28;20401;-27
2023/08/24 12:25:23;;;;;;;3.63;1.67;;;;;;;;;;5076662;28;20027;-28
2023/08/24 12:27:49;;;;;;;2.03;1.80;;;;;;;;;;5058895;28;20052;-28
2023/08/24 12:30:16;;;;;;;6.18;1.88;;;;;;;;;;5076804;28;20104;-26
2023/08/24 12:32:50;;;;;;;2.45;1.60;;;;;;;;;;5058830;28;20111;-27
2023/08/24 12:35:17;;;;;;;2.20;1.80;;;;;;;;;;5076420;28;20025;-26
2023/08/24 12:37:44;;;;;;;6.85;1.65;;;;;;;;;;5076920;28;20339;-25
2023/08/24 12:40:10;;;;;;;4.75;1.70;;;;;;;;;;5076551;28;20055;-24
2023/08/24 12:42:37;;;;;;;2.00;1.40;;;;;;;;;;5075646;28;20020;-25
2023/08/24 12:45:04;;;;;;;2.63;1.83;;;;;;;;;;5076507;28;20020;-25
2023/08/24 12:47:30;;;;;;;3.97;2.00;;;;;;;;;;5076274;28;20455;-25
2023/08/24 12:49:56;;;;;;;5.75;2.40;;;;;;;;;;5076117;28;20111;-28
2023/08/24 12:52:24;;;;;;;2.55;1.70;;;;;;;;;;5076071;28;20029;-27
2023/08/24 12:54:50;;;;;;;2.95;2.03;;;;;;;;;;5076312;28;20360;-25
2023/08/24 12:57:17;;;;;;;2.88;2.03;;;;;;;;;;5058327;28;20466;-27
2023/08/24 12:59:43;;;;;;;4.70;2.17;;;;;;;;;;5075820;28;20029;-25
2023/08/24 13:02:09;;;;;;;3.53;2.20;;;;;;;;;;5075633;28;20020;-27
2023/08/24 13:04:35;;;;;;;5.68;2.65;;;;;;;;;;5076020;28;20028;-26
2023/08/24 13:07:01;;;;;;;4.05;1.98;;;;;;;;;;5075607;28;20032;-25
2023/08/24 13:09:28;;;;;;;3.78;1.77;;;;;;;;;;5076053;28;20078;-24
2023/08/24 13:11:54;;;;;;;2.88;2.00;;;;;;;;;;5057655;28;20419;-24
2023/08/24 13:14:20;;;;;;;4.95;2.40;;;;;;;;;;5075631;28;20028;-25
2023/08/24 13:16:48;;;;;;;3.20;2.42;;;;;;;;;;5075510;28;20029;-24
2023/08/24 13:19:14;;;;;;;2.65;2.17;;;;;;;;;;5075799;28;20040;-27
2023/08/24 13:21:40;;;;;;;3.42;2.70;;;;;;;;;;5075291;28;20021;-23
2023/08/24 13:24:07;;;;;;;2.75;2.08;;;;;;;;;;5057579;28;20036;-27
2023/08/24 13:26:33;;;;;;;5.55;2.85;;;;;;;;;;5057757;28;20024;-28
2023/08/24 13:29:01;;;;;;;5.10;4.05;;;;;;;;;;5075202;28;20367;-27
2023/08/24 13:31:29;;;;;;;4.72;2.05;;;;;;;;;;5075525;28;20056;-25
2023/08/24 13:33:55;;;;;;;3.47;2.50;;;;;;;;;;5075113;28;20024;-28
2023/08/24 13:36:22;;;;;;;6.90;2.85;;;;;;;;;;5075152;28;20029;-27
2023/08/24 13:38:49;;;;;;;4.85;2.75;;;;;;;;;;5040858;28;20129;-24
2023/08/24 13:41:16;;;;;;;5.28;2.10;;;;;;;;;;5057275;28;20297;-26
2023/08/24 13:43:42;;;;;;;5.30;2.47;;;;;;;;;;5074841;28;20454;-25
2023/08/24 13:46:08;;;;;;;3.08;2.47;;;;;;;;;;5057326;28;20032;-25
2023/08/24 13:48:34;;;;;;;7.78;3.42;;;;;;;;;;5057276;28;20359;-25
2023/08/24 13:51:00;;;;;;;7.15;2.58;;;;;;;;;;5074789;28;20074;-26
2023/08/24 13:53:26;;;;;;;2.97;2.67;;;;;;;;;;5057058;28;20111;-27
2023/08/24 13:55:52;;;;;;;4.40;2.47;;;;;;;;;;5074706;28;20423;-25
2023/08/24 13:58:19;;;;;;;5.55;3.13;;;;;;;;;;5057376;28;20037;-27
2023/08/24 14:00:45;;;;;;;10.48;2.88;;;;;;;;;;5074570;28;20031;-38
2023/08/24 14:03:11;;;;;;;2.78;2.35;;;;;;;;;;5074344;28;20129;-26
2023/08/24 14:05:40;;;;;;;5.22;2.25;;;;;;;;;;5074920;28;20028;-26
2023/08/24 14:08:07;;;;;;;3.92;2.67;;;;;;;;;;5074746;28;20443;-27
2023/08/24 14:10:34;;;;;;;5.78;2.65;;;;;;;;;;5075083;28;20052;-25
2023/08/24 14:13:00;;;;;;;8.07;4.15;;;;;;;;;;5056726;28;20039;-27
2023/08/24 14:15:26;;;;;;;3.15;2.15;;;;;;;;;;5056820;28;20439;-25
2023/08/24 14:17:52;;;;;;;5.43;2.53;;;;;;;;;;5074472;28;20083;-26
2023/08/24 14:20:18;;;;;;;3.65;2.17;;;;;;;;;;5074332;28;20043;-27
2023/08/24 14:22:46;;;;;;;4.00;2.58;;;;;;;;;;5057048;28;20439;-27
2023/08/24 14:25:12;;;;;;;5.93;3.20;;;;;;;;;;5074722;28;20020;-27
2023/08/24 14:27:39;;;;;;;6.20;2.28;;;;;;;;;;5074408;28;20049;-26
2023/08/24 14:30:05;;;;;;;4.03;2.20;;;;;;;;;;5075038;28;20024;-27
2023/08/24 14:32:33;;;;;;;3.83;1.95;;;;;;;;;;5074358;28;20052;-28
2023/08/24 14:34:59;;;;;;;9.35;2.58;;;;;;;;;;5074315;28;20025;-30
2023/08/24 14:37:25;;;;;;;12.48;3.03;;;;;;;;;;5074317;28;20025;-27
2023/08/24 14:39:51;;;;;;;6.20;2.22;;;;;;;;;;5056570;28;20458;-27
2023/08/24 14:42:17;;;;;;;6.95;2.83;;;;;;;;;;5056676;28;20029;-25
2023/08/24 14:44:43;;;;;;;3.55;2.30;;;;;;;;;;5074192;28;20459;-24